Time;durP1;ratioP1;P1;durP2;ratioP2;P2;SDS_P1;SDS_P2;PMS_P1;PMS_P2;Temp;Humidity;BMP_temperature;BMP_pressure;BME280_temperature;BME280_humidity;BME280_pressure;Samples;Min_cycle;Max_cycle;Signal;HPM_P1;HPM_P2
2022/12/19 00:01:07;;;;;;;9.68;1.02;;;;;;;;;;5094348;28;20028;-77
2022/12/19 00:03:33;;;;;;;16.38;1.67;;;;;;;;;;5094791;28;20020;-76
2022/12/19 00:06:03;;;;;;;6.22;1.27;;;;;;;;;;5094366;28;20028;-79
2022/12/19 00:08:31;;;;;;;5.35;0.65;;;;;;;;;;5094504;28;20062;-76
2022/12/19 00:10:58;;;;;;;7.30;1.15;;;;;;;;;;5095686;28;20484;-77
2022/12/19 00:13:26;;;;;;;6.07;1.23;;;;;;;;;;5094452;28;20051;-77
2022/12/19 00:15:51;;;;;;;7.43;1.08;;;;;;;;;;5094399;28;20054;-76
2022/12/19 00:18:16;;;;;;;9.20;1.15;;;;;;;;;;5094434;28;20047;-77
2022/12/19 00:20:42;;;;;;;4.72;1.23;;;;;;;;;;5094107;28;20027;-76
2022/12/19 00:23:07;;;;;;;12.77;1.27;;;;;;;;;;5094085;28;20016;-77
2022/12/19 00:25:33;;;;;;;6.22;0.88;;;;;;;;;;5094490;28;20023;-79
2022/12/19 00:27:58;;;;;;;14.15;2.85;;;;;;;;;;5093833;28;20495;-77
2022/12/19 00:30:24;;;;;;;9.88;2.20;;;;;;;;;;5093620;28;20050;-76
2022/12/19 00:32:49;;;;;;;8.00;1.40;;;;;;;;;;5093605;28;20030;-77
2022/12/19 00:35:14;;;;;;;6.70;1.15;;;;;;;;;;5093472;28;20016;-77
2022/12/19 00:37:40;;;;;;;6.40;1.17;;;;;;;;;;5094882;28;20020;-77
2022/12/19 00:40:12;;;;;;;6.15;0.85;;;;;;;;;;5093577;28;20054;-76
2022/12/19 00:42:37;;;;;;;8.38;1.10;;;;;;;;;;5095118;28;20035;-77
2022/12/19 00:45:02;;;;;;;7.47;1.42;;;;;;;;;;5093528;28;20484;-76
2022/12/19 00:47:28;;;;;;;13.73;1.75;;;;;;;;;;5093675;28;20028;-76
2022/12/19 00:49:53;;;;;;;10.27;1.42;;;;;;;;;;5093346;28;20472;-76
2022/12/19 00:52:20;;;;;;;5.00;0.80;;;;;;;;;;5093560;28;20023;-75
2022/12/19 00:54:46;;;;;;;9.52;2.72;;;;;;;;;;5093759;28;20027;-77
2022/12/19 00:57:11;;;;;;;6.28;1.27;;;;;;;;;;5094211;28;20069;-76
2022/12/19 00:59:37;;;;;;;8.80;1.58;;;;;;;;;;5093899;28;20052;-74
2022/12/19 01:02:02;;;;;;;6.93;1.55;;;;;;;;;;5094386;28;20035;-75
2022/12/19 01:04:28;;;;;;;9.70;1.08;;;;;;;;;;5094513;28;20020;-75
2022/12/19 01:06:53;;;;;;;7.07;1.17;;;;;;;;;;5094220;28;20012;-76
2022/12/19 01:09:20;;;;;;;11.02;1.30;;;;;;;;;;5093288;28;20073;-74
2022/12/19 01:14:30;;;;;;;8.80;1.45;;;;;;;;;;5097349;28;20051;-75
2022/12/19 01:16:56;;;;;;;9.45;1.23;;;;;;;;;;5099072;28;20024;-77
2022/12/19 01:19:21;;;;;;;4.90;0.88;;;;;;;;;;5100243;28;20049;-76
2022/12/19 01:21:47;;;;;;;6.20;1.13;;;;;;;;;;5092774;28;20032;-75
2022/12/19 01:24:13;;;;;;;6.13;1.10;;;;;;;;;;5092836;28;20121;-76
2022/12/19 01:26:39;;;;;;;8.98;2.15;;;;;;;;;;5092620;28;20384;-75
2022/12/19 01:29:04;;;;;;;10.95;1.23;;;;;;;;;;5092054;28;20012;-75
2022/12/19 01:31:31;;;;;;;11.25;1.67;;;;;;;;;;5092543;28;20019;-77
2022/12/19 01:33:58;;;;;;;7.43;1.10;;;;;;;;;;5092614;28;20456;-75
2022/12/19 01:36:24;;;;;;;7.25;1.08;;;;;;;;;;5092699;28;20453;-75
2022/12/19 01:38:50;;;;;;;6.00;0.80;;;;;;;;;;5094263;28;20073;-75
2022/12/19 01:41:15;;;;;;;9.40;1.77;;;;;;;;;;5093819;28;20447;-77
2022/12/19 01:43:55;;;;;;;8.93;1.48;;;;;;;;;;5096282;28;20023;-75
2022/12/19 01:46:24;;;;;;;6.95;1.08;;;;;;;;;;5097574;28;20076;-75
2022/12/19 01:48:52;;;;;;;8.65;1.08;;;;;;;;;;5098143;28;20388;-75
2022/12/19 01:51:19;;;;;;;8.52;1.00;;;;;;;;;;5093741;28;20465;-76
2022/12/19 01:53:47;;;;;;;3.60;0.90;;;;;;;;;;5092843;28;20485;-76
2022/12/19 01:56:14;;;;;;;6.47;1.60;;;;;;;;;;5093254;28;20023;-75
2022/12/19 01:58:41;;;;;;;6.60;0.98;;;;;;;;;;5092718;28;20039;-75
2022/12/19 02:01:07;;;;;;;6.32;1.15;;;;;;;;;;5094451;28;20083;-77
2022/12/19 02:03:34;;;;;;;10.00;1.25;;;;;;;;;;5094200;28;20024;-75
2022/12/19 02:06:01;;;;;;;13.10;1.65;;;;;;;;;;5094946;28;20020;-75
2022/12/19 02:08:27;;;;;;;10.75;2.13;;;;;;;;;;5092560;28;20115;-76
2022/12/19 02:10:52;;;;;;;8.68;1.92;;;;;;;;;;5092933;28;20074;-75
2022/12/19 02:13:19;;;;;;;7.13;1.25;;;;;;;;;;5092709;28;20111;-77
2022/12/19 02:15:54;;;;;;;9.65;1.35;;;;;;;;;;5093038;28;20024;-77
2022/12/19 02:18:30;;;;;;;9.85;2.05;;;;;;;;;;5093453;28;20361;-74
2022/12/19 02:21:25;;;;;;;5.65;1.13;;;;;;;;;;5093764;28;20036;-84
2022/12/19 02:24:05;;;;;;;7.65;1.30;;;;;;;;;;5075204;28;20023;-76
2022/12/19 02:26:41;;;;;;;7.65;1.27;;;;;;;;;;5094377;28;20024;-75
2022/12/19 02:29:22;;;;;;;7.03;2.08;;;;;;;;;;5092671;28;20043;-74
2022/12/19 02:32:00;;;;;;;7.32;1.80;;;;;;;;;;5093468;28;20024;-75
2022/12/19 02:34:38;;;;;;;8.40;1.20;;;;;;;;;;5092778;28;20028;-75
2022/12/19 02:37:11;;;;;;;9.77;2.78;;;;;;;;;;5093183;28;20465;-77
2022/12/19 02:39:43;;;;;;;9.82;1.75;;;;;;;;;;5093959;28;20020;-76
2022/12/19 02:42:12;;;;;;;9.07;1.38;;;;;;;;;;5098240;28;20047;-76
2022/12/19 02:44:43;;;;;;;9.23;1.50;;;;;;;;;;5098413;28;20106;-75
2022/12/19 02:47:09;;;;;;;6.22;1.63;;;;;;;;;;5098525;28;20024;-76
2022/12/19 02:49:37;;;;;;;6.70;2.08;;;;;;;;;;5096443;28;20111;-75
2022/12/19 02:52:32;;;;;;;9.82;1.80;;;;;;;;;;5097636;28;20031;-77
2022/12/19 02:55:03;;;;;;;4.90;1.15;;;;;;;;;;5077825;28;20056;-77
2022/12/19 02:57:32;;;;;;;6.93;1.58;;;;;;;;;;5095733;28;20028;-78
2022/12/19 03:00:00;;;;;;;8.55;1.23;;;;;;;;;;5097584;28;20048;-76
2022/12/19 03:02:35;;;;;;;8.02;1.35;;;;;;;;;;5101612;28;20040;-79
2022/12/19 03:05:13;;;;;;;8.55;1.83;;;;;;;;;;5100526;28;20028;-76
2022/12/19 03:07:38;;;;;;;7.72;1.40;;;;;;;;;;5097275;28;20115;-77
2022/12/19 03:10:09;;;;;;;12.27;1.98;;;;;;;;;;5096341;28;20052;-75
2022/12/19 03:12:42;;;;;;;10.15;1.63;;;;;;;;;;5095962;28;20377;-74
2022/12/19 03:15:08;;;;;;;4.68;1.70;;;;;;;;;;5095304;28;20020;-75
2022/12/19 03:17:38;;;;;;;9.40;1.23;;;;;;;;;;5098558;28;20031;-75
2022/12/19 03:20:07;;;;;;;8.25;1.58;;;;;;;;;;5099818;28;20027;-76
2022/12/19 03:22:33;;;;;;;10.07;1.40;;;;;;;;;;5098659;28;20039;-75
2022/12/19 03:25:00;;;;;;;8.48;1.40;;;;;;;;;;5097622;28;20022;-75
2022/12/19 03:27:29;;;;;;;8.63;1.80;;;;;;;;;;5096806;28;20020;-75
2022/12/19 03:30:06;;;;;;;10.60;1.80;;;;;;;;;;5095748;28;20070;-75
2022/12/19 03:32:32;;;;;;;7.30;1.92;;;;;;;;;;5094477;28;20028;-78
2022/12/19 03:35:02;;;;;;;7.90;1.25;;;;;;;;;;5094410;28;20024;-75
2022/12/19 03:37:30;;;;;;;7.90;2.40;;;;;;;;;;5095833;28;20030;-76
2022/12/19 03:40:01;;;;;;;7.72;1.95;;;;;;;;;;5096238;28;20123;-76
2022/12/19 03:45:14;;;;;;;9.48;1.35;;;;;;;;;;5096160;28;20092;-75
2022/12/19 03:47:42;;;;;;;10.02;1.42;;;;;;;;;;5095694;28;20103;-75
2022/12/19 03:50:08;;;;;;;7.72;1.42;;;;;;;;;;5094406;28;20433;-75
2022/12/19 03:52:39;;;;;;;5.53;1.48;;;;;;;;;;5095719;28;20020;-76
2022/12/19 03:55:16;;;;;;;6.85;1.52;;;;;;;;;;5094111;28;20089;-75
2022/12/19 03:57:46;;;;;;;6.90;1.67;;;;;;;;;;5095445;28;20053;-75
2022/12/19 04:00:13;;;;;;;8.68;2.03;;;;;;;;;;5093657;28;20500;-75
2022/12/19 04:02:42;;;;;;;14.30;2.85;;;;;;;;;;5093884;28;20038;-74
2022/12/19 04:05:09;;;;;;;11.40;1.25;;;;;;;;;;5093602;28;20073;-76
2022/12/19 04:07:35;;;;;;;10.50;2.10;;;;;;;;;;5093863;28;20020;-75
2022/12/19 04:10:03;;;;;;;6.32;1.58;;;;;;;;;;5093551;28;20016;-76
2022/12/19 04:12:37;;;;;;;7.38;1.20;;;;;;;;;;5093685;28;20048;-76
2022/12/19 04:15:04;;;;;;;13.10;2.75;;;;;;;;;;5093348;28;20016;-74
2022/12/19 04:17:32;;;;;;;11.07;1.70;;;;;;;;;;5094325;28;20024;-75
2022/12/19 04:19:58;;;;;;;8.55;1.80;;;;;;;;;;5094192;28;20050;-77
2022/12/19 04:22:28;;;;;;;3.63;1.15;;;;;;;;;;5093405;28;20392;-75
2022/12/19 04:24:54;;;;;;;8.20;1.77;;;;;;;;;;5093601;28;20020;-75
2022/12/19 04:27:20;;;;;;;8.40;2.20;;;;;;;;;;5093329;28;20089;-75
2022/12/19 04:29:47;;;;;;;12.82;2.10;;;;;;;;;;5095111;28;20032;-76
2022/12/19 04:32:12;;;;;;;13.60;3.47;;;;;;;;;;5093474;28;20047;-76
2022/12/19 04:34:39;;;;;;;12.02;4.57;;;;;;;;;;5094831;28;20469;-77
2022/12/19 04:37:04;;;;;;;9.60;2.25;;;;;;;;;;5092919;28;20111;-76
2022/12/19 04:39:31;;;;;;;8.77;2.75;;;;;;;;;;5094852;28;20096;-76
2022/12/19 04:41:57;;;;;;;14.50;3.45;;;;;;;;;;5093582;28;20388;-76
2022/12/19 04:44:23;;;;;;;16.65;3.90;;;;;;;;;;5093499;28;20020;-75
2022/12/19 04:46:49;;;;;;;11.23;3.03;;;;;;;;;;5093464;28;20064;-77
2022/12/19 04:49:14;;;;;;;11.27;3.40;;;;;;;;;;5092821;28;20016;-77
2022/12/19 04:51:40;;;;;;;22.75;5.75;;;;;;;;;;5092577;28;20155;-77
2022/12/19 04:54:06;;;;;;;16.23;4.35;;;;;;;;;;5093028;28;20040;-76
2022/12/19 04:56:34;;;;;;;13.10;3.78;;;;;;;;;;5092752;28;20016;-75
2022/12/19 04:59:00;;;;;;;20.10;3.92;;;;;;;;;;5093585;28;20048;-77
2022/12/19 05:01:26;;;;;;;10.23;4.30;;;;;;;;;;5092670;28;20042;-76
2022/12/19 05:03:52;;;;;;;8.55;3.53;;;;;;;;;;5092483;28;20073;-75
2022/12/19 05:06:18;;;;;;;15.77;4.47;;;;;;;;;;5092373;28;20147;-75
2022/12/19 05:08:43;;;;;;;10.60;4.75;;;;;;;;;;5092740;28;20502;-75
2022/12/19 05:11:10;;;;;;;12.68;4.05;;;;;;;;;;5092283;28;20043;-75
2022/12/19 05:13:36;;;;;;;9.73;4.50;;;;;;;;;;5092443;28;20031;-75
2022/12/19 05:16:05;;;;;;;18.00;5.18;;;;;;;;;;5092536;28;20023;-76
2022/12/19 05:18:32;;;;;;;16.42;5.00;;;;;;;;;;5092186;28;20114;-76
2022/12/19 05:20:58;;;;;;;19.60;6.05;;;;;;;;;;5091675;28;20476;-75
2022/12/19 05:23:24;;;;;;;18.70;7.25;;;;;;;;;;5093359;28;20077;-74
2022/12/19 05:25:49;;;;;;;17.25;5.75;;;;;;;;;;5092215;28;20069;-75
2022/12/19 05:28:16;;;;;;;18.27;6.93;;;;;;;;;;5092255;28;20020;-77
2022/12/19 05:30:41;;;;;;;18.33;6.03;;;;;;;;;;5092226;28;20024;-75
2022/12/19 05:33:06;;;;;;;19.25;7.43;;;;;;;;;;5091597;28;20080;-78
2022/12/19 05:35:32;;;;;;;21.50;6.97;;;;;;;;;;5091710;28;20027;-74
2022/12/19 05:37:58;;;;;;;23.98;7.18;;;;;;;;;;5091983;28;20048;-74
2022/12/19 05:40:23;;;;;;;34.35;8.18;;;;;;;;;;5091597;28;20024;-75
2022/12/19 05:42:49;;;;;;;20.63;8.35;;;;;;;;;;5091778;28;20027;-75
2022/12/19 05:45:14;;;;;;;21.60;8.55;;;;;;;;;;5091689;28;20076;-74
2022/12/19 05:47:41;;;;;;;20.50;8.77;;;;;;;;;;5091529;28;20027;-73
2022/12/19 05:50:07;;;;;;;20.30;9.20;;;;;;;;;;5091296;28;20125;-74
2022/12/19 05:52:35;;;;;;;20.50;9.23;;;;;;;;;;5091885;28;20483;-75
2022/12/19 05:55:00;;;;;;;19.63;8.95;;;;;;;;;;5092794;28;20118;-76
2022/12/19 05:57:26;;;;;;;22.15;8.85;;;;;;;;;;5093086;28;20500;-77
2022/12/19 05:59:53;;;;;;;22.92;9.38;;;;;;;;;;5091157;28;20052;-76
2022/12/19 06:02:20;;;;;;;22.58;9.75;;;;;;;;;;5093323;28;20494;-76
2022/12/19 06:04:45;;;;;;;21.52;9.98;;;;;;;;;;5092437;28;20551;-74
2022/12/19 06:07:12;;;;;;;22.55;10.82;;;;;;;;;;5090928;28;20040;-75
2022/12/19 06:09:38;;;;;;;26.27;10.60;;;;;;;;;;5090972;28;20487;-75
2022/12/19 06:12:03;;;;;;;24.60;10.32;;;;;;;;;;5092728;28;20008;-73
2022/12/19 06:14:29;;;;;;;24.75;10.90;;;;;;;;;;5090285;28;20039;-74
2022/12/19 06:16:54;;;;;;;31.08;12.90;;;;;;;;;;5090943;28;20027;-75
2022/12/19 06:19:20;;;;;;;26.40;11.07;;;;;;;;;;5090987;28;20024;-75
2022/12/19 06:21:45;;;;;;;21.30;11.00;;;;;;;;;;5091447;28;20075;-75
2022/12/19 06:24:11;;;;;;;24.33;11.65;;;;;;;;;;5091954;28;20725;-74
2022/12/19 06:26:36;;;;;;;26.88;11.68;;;;;;;;;;5092700;28;20027;-73
2022/12/19 06:29:02;;;;;;;23.63;12.73;;;;;;;;;;5091497;28;20016;-75
2022/12/19 06:31:27;;;;;;;22.77;10.55;;;;;;;;;;5091261;28;20020;-77
2022/12/19 06:33:53;;;;;;;22.85;11.18;;;;;;;;;;5091487;28;20016;-76
2022/12/19 06:36:20;;;;;;;24.15;12.60;;;;;;;;;;5090942;28;20024;-73
2022/12/19 06:38:47;;;;;;;20.75;10.75;;;;;;;;;;5090338;28;20553;-75
2022/12/19 06:43:58;;;;;;;20.63;10.80;;;;;;;;;;5092834;28;20046;-75
2022/12/19 06:46:24;;;;;;;19.42;10.77;;;;;;;;;;5091939;28;20032;-74
2022/12/19 06:48:51;;;;;;;23.60;10.50;;;;;;;;;;5092924;28;20074;-75
2022/12/19 06:51:17;;;;;;;22.10;11.93;;;;;;;;;;5091782;28;20028;-75
2022/12/19 06:53:43;;;;;;;27.08;10.23;;;;;;;;;;5090550;28;20442;-75
2022/12/19 06:56:10;;;;;;;19.58;9.23;;;;;;;;;;5089823;28;20096;-77
2022/12/19 06:58:36;;;;;;;18.13;10.32;;;;;;;;;;5089634;28;20052;-75
2022/12/19 07:01:01;;;;;;;21.83;12.35;;;;;;;;;;5089839;28;20438;-75
2022/12/19 07:03:30;;;;;;;26.15;9.82;;;;;;;;;;5091623;28;20012;-75
2022/12/19 07:05:58;;;;;;;24.42;11.52;;;;;;;;;;5089919;28;20024;-76
2022/12/19 07:08:26;;;;;;;20.23;8.45;;;;;;;;;;5089985;28;20016;-73
2022/12/19 07:10:52;;;;;;;20.10;10.95;;;;;;;;;;5091949;28;20027;-76
2022/12/19 07:13:18;;;;;;;18.38;9.23;;;;;;;;;;5090519;28;20016;-75
2022/12/19 07:15:43;;;;;;;23.65;11.68;;;;;;;;;;5089707;28;20348;-75
2022/12/19 07:18:09;;;;;;;18.38;10.13;;;;;;;;;;5089678;28;20507;-75
2022/12/19 07:20:36;;;;;;;17.95;9.75;;;;;;;;;;5090866;28;20489;-75
2022/12/19 07:23:03;;;;;;;25.88;9.73;;;;;;;;;;5090912;28;20050;-75
2022/12/19 07:25:28;;;;;;;22.80;12.20;;;;;;;;;;5090203;28;20066;-76
2022/12/19 07:27:54;;;;;;;19.98;11.18;;;;;;;;;;5094520;28;20321;-75
2022/12/19 07:30:21;;;;;;;20.67;9.63;;;;;;;;;;5093571;28;20020;-74
2022/12/19 07:32:46;;;;;;;21.15;8.57;;;;;;;;;;5095075;28;20024;-74
2022/12/19 07:35:12;;;;;;;24.75;11.32;;;;;;;;;;5094767;28;20024;-76
2022/12/19 07:37:37;;;;;;;21.15;10.18;;;;;;;;;;5094688;28;20053;-74
2022/12/19 07:40:03;;;;;;;19.77;9.15;;;;;;;;;;5094759;28;20115;-73
2022/12/19 07:42:29;;;;;;;26.13;11.18;;;;;;;;;;5092875;28;20114;-76
2022/12/19 07:44:55;;;;;;;20.27;8.07;;;;;;;;;;5093200;28;20035;-75
2022/12/19 07:47:20;;;;;;;25.20;11.52;;;;;;;;;;5094636;28;20012;-74
2022/12/19 07:49:46;;;;;;;19.88;9.73;;;;;;;;;;5093181;28;20047;-74
2022/12/19 07:52:11;;;;;;;17.27;9.38;;;;;;;;;;5092852;28;20016;-75
2022/12/19 07:54:37;;;;;;;21.27;8.80;;;;;;;;;;5094705;28;20027;-72
2022/12/19 07:57:02;;;;;;;21.40;11.25;;;;;;;;;;5093144;28;20020;-76
2022/12/19 07:59:28;;;;;;;22.85;10.30;;;;;;;;;;5094123;28;20460;-75
2022/12/19 08:01:53;;;;;;;19.30;9.60;;;;;;;;;;5094605;28;20040;-76
2022/12/19 08:04:19;;;;;;;18.90;9.55;;;;;;;;;;5093488;28;20111;-75
2022/12/19 08:06:45;;;;;;;19.08;8.90;;;;;;;;;;5092993;28;20047;-75
2022/12/19 08:09:11;;;;;;;15.70;7.88;;;;;;;;;;5094194;28;20023;-75
2022/12/19 08:11:36;;;;;;;15.52;8.27;;;;;;;;;;5094588;28;20103;-74
2022/12/19 08:14:02;;;;;;;14.75;7.05;;;;;;;;;;5093007;28;20012;-75
2022/12/19 08:16:28;;;;;;;21.20;8.43;;;;;;;;;;5093900;28;20031;-75
2022/12/19 08:18:55;;;;;;;14.30;5.85;;;;;;;;;;5094280;28;20020;-75
2022/12/19 08:21:22;;;;;;;13.77;5.90;;;;;;;;;;5092889;28;20024;-76
2022/12/19 08:23:47;;;;;;;12.60;6.18;;;;;;;;;;5094318;28;20016;-76
2022/12/19 08:26:14;;;;;;;13.35;6.50;;;;;;;;;;5093627;28;20012;-75
2022/12/19 08:28:39;;;;;;;15.15;5.47;;;;;;;;;;5092466;28;20110;-76
2022/12/19 08:31:06;;;;;;;12.93;5.88;;;;;;;;;;5092574;28;20070;-75
2022/12/19 08:33:32;;;;;;;11.02;5.30;;;;;;;;;;5092341;28;20021;-76
2022/12/19 08:35:57;;;;;;;14.32;6.22;;;;;;;;;;5094140;28;20380;-75
2022/12/19 08:38:23;;;;;;;10.13;4.55;;;;;;;;;;5092115;28;20440;-77
2022/12/19 08:40:52;;;;;;;13.38;4.68;;;;;;;;;;5093353;28;20605;-77
2022/12/19 08:43:18;;;;;;;13.45;5.68;;;;;;;;;;5093252;28;20650;-76
2022/12/19 08:45:44;;;;;;;10.95;4.18;;;;;;;;;;5093665;28;20541;-75
2022/12/19 08:48:11;;;;;;;11.02;5.00;;;;;;;;;;5093186;28;20051;-77
2022/12/19 08:50:38;;;;;;;9.07;3.50;;;;;;;;;;5093038;28;20051;-77
2022/12/19 08:53:03;;;;;;;12.70;3.63;;;;;;;;;;5094943;28;20023;-77
2022/12/19 08:55:29;;;;;;;9.73;4.70;;;;;;;;;;5093199;28;20024;-78
2022/12/19 08:57:55;;;;;;;13.25;4.07;;;;;;;;;;5093558;28;20032;-75
2022/12/19 09:00:21;;;;;;;11.30;3.85;;;;;;;;;;5092109;28;20048;-75
2022/12/19 09:02:47;;;;;;;4.35;1.98;;;;;;;;;;5094297;28;20123;-76
2022/12/19 09:05:12;;;;;;;6.68;3.25;;;;;;;;;;5092726;28;20016;-77
2022/12/19 09:07:39;;;;;;;12.73;4.28;;;;;;;;;;5092246;28;20111;-76
2022/12/19 09:10:06;;;;;;;9.77;4.00;;;;;;;;;;5093696;28;20043;-78
2022/12/19 09:12:31;;;;;;;6.65;2.63;;;;;;;;;;5093666;28;20051;-78
2022/12/19 09:14:56;;;;;;;9.23;3.30;;;;;;;;;;5091982;28;20055;-80
2022/12/19 09:17:22;;;;;;;5.18;2.75;;;;;;;;;;5092059;28;20433;-78
2022/12/19 09:19:48;;;;;;;5.82;2.70;;;;;;;;;;5092369;28;20065;-76
2022/12/19 09:22:13;;;;;;;9.63;3.13;;;;;;;;;;5092363;28;20031;-77
2022/12/19 09:24:39;;;;;;;6.03;2.92;;;;;;;;;;5091869;28;20024;-77
2022/12/19 09:27:04;;;;;;;16.35;5.32;;;;;;;;;;5092193;28;20016;-78
2022/12/19 09:29:30;;;;;;;6.28;2.63;;;;;;;;;;5094469;28;20027;-80
2022/12/19 09:31:57;;;;;;;19.60;6.97;;;;;;;;;;5092286;28;20020;-78
2022/12/19 09:34:25;;;;;;;18.77;6.20;;;;;;;;;;5093174;28;20095;-77
2022/12/19 09:36:50;;;;;;;16.25;6.95;;;;;;;;;;5091830;28;20027;-78
2022/12/19 09:39:16;;;;;;;15.88;4.53;;;;;;;;;;5091318;28;20035;-79
2022/12/19 09:41:53;;;;;;;10.88;2.83;;;;;;;;;;5093402;28;20020;-77
2022/12/19 09:44:22;;;;;;;11.73;4.55;;;;;;;;;;5091929;28;20103;-77
2022/12/19 09:46:56;;;;;;;13.05;4.82;;;;;;;;;;5091957;28;20073;-77
2022/12/19 09:49:38;;;;;;;11.60;4.53;;;;;;;;;;5092453;28;20020;-78
2022/12/19 09:52:06;;;;;;;22.70;5.57;;;;;;;;;;5091388;28;20028;-77
2022/12/19 09:54:59;;;;;;;18.70;6.57;;;;;;;;;;5091812;28;20012;-77
2022/12/19 09:57:43;;;;;;;16.05;4.80;;;;;;;;;;5060421;28;20028;-77
2022/12/19 10:00:14;;;;;;;15.40;5.18;;;;;;;;;;5090657;28;20500;-78
2022/12/19 10:02:40;;;;;;;16.08;5.70;;;;;;;;;;5091695;28;20119;-79
2022/12/19 10:05:24;;;;;;;12.20;3.95;;;;;;;;;;5092101;28;20530;-77
2022/12/19 10:07:51;;;;;;;20.20;7.47;;;;;;;;;;5090915;28;20114;-79
2022/12/19 10:10:21;;;;;;;16.67;6.15;;;;;;;;;;5090884;28;20034;-80
2022/12/19 10:13:08;;;;;;;17.17;7.50;;;;;;;;;;5092653;28;20019;-79
2022/12/19 10:15:39;;;;;;;17.33;6.53;;;;;;;;;;5090377;28;20050;-79
2022/12/19 10:18:28;;;;;;;18.35;7.28;;;;;;;;;;5091234;28;20487;-80
2022/12/19 10:20:59;;;;;;;24.92;8.93;;;;;;;;;;5090432;28;20485;-79
2022/12/19 10:23:31;;;;;;;19.38;7.57;;;;;;;;;;5091494;28;20387;-78
2022/12/19 10:26:05;;;;;;;24.25;7.57;;;;;;;;;;5091218;28;20032;-79
2022/12/19 10:28:37;;;;;;;22.75;8.50;;;;;;;;;;5090758;28;20115;-76
2022/12/19 10:31:08;;;;;;;19.05;8.82;;;;;;;;;;5090963;28;20024;-79
2022/12/19 10:33:43;;;;;;;22.52;8.10;;;;;;;;;;5090464;28;20012;-81
2022/12/19 10:36:10;;;;;;;26.77;7.10;;;;;;;;;;5090964;28;20031;-78
2022/12/19 10:38:44;;;;;;;21.05;8.55;;;;;;;;;;5090310;28;20423;-79
2022/12/19 10:41:25;;;;;;;21.27;8.80;;;;;;;;;;5090482;28;20027;-80
2022/12/19 10:43:51;;;;;;;14.18;7.18;;;;;;;;;;5090293;28;20028;-80
2022/12/19 10:46:35;;;;;;;25.55;9.63;;;;;;;;;;5090434;28;20387;-79
2022/12/19 10:49:05;;;;;;;19.88;9.63;;;;;;;;;;5090304;28;20369;-79
2022/12/19 10:51:31;;;;;;;17.35;8.00;;;;;;;;;;5092769;28;20016;-79
2022/12/19 10:53:57;;;;;;;21.92;7.45;;;;;;;;;;5090833;28;20023;-79
2022/12/19 10:56:25;;;;;;;22.95;10.23;;;;;;;;;;5091852;28;20028;-79
2022/12/19 10:58:53;;;;;;;20.50;8.55;;;;;;;;;;5091476;28;20048;-79
2022/12/19 11:01:26;;;;;;;26.65;9.15;;;;;;;;;;5093571;28;20081;-79
2022/12/19 11:04:12;;;;;;;22.17;9.73;;;;;;;;;;5100022;28;20129;-79
2022/12/19 11:06:48;;;;;;;24.00;9.98;;;;;;;;;;5095159;28;20027;-79
2022/12/19 11:09:19;;;;;;;21.40;8.75;;;;;;;;;;5095719;28;20111;-80
2022/12/19 11:11:46;;;;;;;25.88;9.50;;;;;;;;;;5094658;28;20065;-80
2022/12/19 11:14:22;;;;;;;23.20;9.30;;;;;;;;;;5110779;28;20054;-78
2022/12/19 11:16:48;;;;;;;26.65;9.50;;;;;;;;;;5094191;28;20027;-80
2022/12/19 11:19:36;;;;;;;20.73;8.82;;;;;;;;;;5095650;28;20012;-79
2022/12/19 11:22:06;;;;;;;20.98;7.60;;;;;;;;;;5083715;28;20045;-78
2022/12/19 11:24:38;;;;;;;22.58;8.77;;;;;;;;;;5096494;28;20102;-81
2022/12/19 11:27:23;;;;;;;18.92;8.57;;;;;;;;;;5094688;28;20039;-80
2022/12/19 11:29:49;;;;;;;24.05;7.80;;;;;;;;;;5094470;28;20387;-79
2022/12/19 11:32:33;;;;;;;19.77;8.05;;;;;;;;;;5095564;28;20021;-78
2022/12/19 11:35:01;;;;;;;27.80;10.52;;;;;;;;;;5093728;28;20023;-78
2022/12/19 11:37:35;;;;;;;21.27;7.97;;;;;;;;;;5099136;28;20094;-78
2022/12/19 11:40:14;;;;;;;21.08;9.00;;;;;;;;;;5100482;28;20022;-78
2022/12/19 11:42:50;;;;;;;22.13;9.32;;;;;;;;;;5098158;28;20047;-79
2022/12/19 11:45:19;;;;;;;23.23;8.90;;;;;;;;;;5094272;28;20063;-80
2022/12/19 11:47:52;;;;;;;26.25;10.77;;;;;;;;;;5093821;28;20036;-80
2022/12/19 11:50:25;;;;;;;29.92;9.98;;;;;;;;;;5093863;28;20365;-80
2022/12/19 11:52:51;;;;;;;24.15;9.02;;;;;;;;;;5094469;28;20464;-79
2022/12/19 11:55:25;;;;;;;20.50;10.80;;;;;;;;;;5094125;28;20073;-79
2022/12/19 11:57:51;;;;;;;27.50;10.10;;;;;;;;;;5093666;28;20078;-79
2022/12/19 12:00:19;;;;;;;27.23;10.65;;;;;;;;;;5094517;28;20085;-80
2022/12/19 12:03:04;;;;;;;27.48;10.32;;;;;;;;;;5093234;28;20114;-81
2022/12/19 12:05:50;;;;;;;22.85;10.00;;;;;;;;;;5093411;28;20027;-79
2022/12/19 12:08:21;;;;;;;32.30;10.98;;;;;;;;;;5092999;28;20081;-79
2022/12/19 12:10:54;;;;;;;28.70;7.65;;;;;;;;;;5093214;28;20058;-81
2022/12/19 12:13:31;;;;;;;21.83;8.73;;;;;;;;;;5092810;28;20065;-77
2022/12/19 12:15:59;;;;;;;18.63;9.25;;;;;;;;;;5111235;28;20024;-79
2022/12/19 12:18:35;;;;;;;23.20;8.73;;;;;;;;;;5093602;28;20076;-81
2022/12/19 12:21:08;;;;;;;24.25;8.52;;;;;;;;;;5093373;28;20480;-80
2022/12/19 12:23:52;;;;;;;26.10;10.75;;;;;;;;;;5095286;28;20024;-80
2022/12/19 12:26:41;;;;;;;29.48;12.60;;;;;;;;;;5093649;28;20040;-80
2022/12/19 12:29:25;;;;;;;22.42;9.57;;;;;;;;;;5082423;28;20144;-80
2022/12/19 12:31:56;;;;;;;29.85;13.63;;;;;;;;;;5096223;28;20027;-78
2022/12/19 12:34:34;;;;;;;17.92;7.43;;;;;;;;;;5093248;28;20480;-78
2022/12/19 12:37:00;;;;;;;19.25;10.07;;;;;;;;;;5093307;28;20031;-81
2022/12/19 12:39:34;;;;;;;21.15;9.65;;;;;;;;;;5095469;28;20020;-79
2022/12/19 12:42:03;;;;;;;20.25;8.88;;;;;;;;;;5093748;28;20042;-79
2022/12/19 12:44:39;;;;;;;20.75;9.05;;;;;;;;;;5092199;28;20110;-79
2022/12/19 12:47:13;;;;;;;21.83;9.70;;;;;;;;;;5095039;28;20055;-81
2022/12/19 12:49:41;;;;;;;20.20;9.07;;;;;;;;;;5093589;28;20052;-82
2022/12/19 12:52:13;;;;;;;22.17;9.70;;;;;;;;;;5094898;28;20080;-81
2022/12/19 12:54:40;;;;;;;19.80;7.85;;;;;;;;;;5095310;28;20103;-79
2022/12/19 12:57:13;;;;;;;17.42;8.50;;;;;;;;;;5093272;28;20028;-82
2022/12/19 12:59:43;;;;;;;24.98;9.80;;;;;;;;;;5092964;28;20146;-81
2022/12/19 13:02:15;;;;;;;23.67;9.77;;;;;;;;;;5093193;28;20046;-83
2022/12/19 13:04:52;;;;;;;24.70;11.10;;;;;;;;;;5093436;28;20468;-79
2022/12/19 13:07:19;;;;;;;21.38;9.10;;;;;;;;;;5092341;28;20027;-80
2022/12/19 13:09:48;;;;;;;24.08;10.32;;;;;;;;;;5094298;28;20016;-78
2022/12/19 13:15:18;;;;;;;24.13;9.90;;;;;;;;;;5093558;28;20034;-80
2022/12/19 13:17:46;;;;;;;20.55;9.00;;;;;;;;;;5093866;28;20123;-80
2022/12/19 13:20:12;;;;;;;25.65;10.05;;;;;;;;;;5093788;28;20119;-78
2022/12/19 13:22:42;;;;;;;25.95;11.30;;;;;;;;;;5095492;28;20028;-82
2022/12/19 13:25:35;;;;;;;30.10;11.27;;;;;;;;;;5093593;28;20033;-81
2022/12/19 13:28:00;;;;;;;27.38;10.75;;;;;;;;;;5070945;28;20024;-80
2022/12/19 13:30:26;;;;;;;21.77;9.07;;;;;;;;;;5092051;28;20016;-83
2022/12/19 13:32:52;;;;;;;18.85;8.55;;;;;;;;;;5092372;28;20016;-80
2022/12/19 13:35:17;;;;;;;24.08;11.20;;;;;;;;;;5092661;28;20024;-81
2022/12/19 13:38:01;;;;;;;23.88;9.77;;;;;;;;;;5092192;28;20027;-81
2022/12/19 13:40:27;;;;;;;26.08;13.20;;;;;;;;;;5093907;28;20556;-81
2022/12/19 13:45:55;;;;;;;24.20;10.20;;;;;;;;;;5093758;28;20031;-83
2022/12/19 13:48:44;;;;;;;24.98;10.52;;;;;;;;;;5092632;28;20016;-80
2022/12/19 13:51:11;;;;;;;27.45;11.23;;;;;;;;;;5093784;28;20495;-79
2022/12/19 13:53:37;;;;;;;25.35;10.98;;;;;;;;;;5092989;28;20494;-81
2022/12/19 13:56:02;;;;;;;25.60;12.38;;;;;;;;;;5093648;28;20099;-80
2022/12/19 13:58:29;;;;;;;16.92;6.40;;;;;;;;;;5091829;28;20052;-78
2022/12/19 14:00:56;;;;;;;25.33;10.30;;;;;;;;;;5096189;28;20020;-81
2022/12/19 14:03:33;;;;;;;25.85;11.52;;;;;;;;;;5093049;28;20863;-80
2022/12/19 14:06:06;;;;;;;32.00;11.93;;;;;;;;;;5094966;28;20476;-80
2022/12/19 14:08:31;;;;;;;25.52;10.50;;;;;;;;;;5099026;28;20031;-81
2022/12/19 14:10:57;;;;;;;26.05;11.52;;;;;;;;;;5097281;28;20103;-80
2022/12/19 14:16:13;;;;;;;22.55;8.20;;;;;;;;;;5094912;28;20034;-81
2022/12/19 14:18:39;;;;;;;25.38;10.85;;;;;;;;;;5092442;28;20025;-82
2022/12/19 14:21:29;;;;;;;27.25;11.88;;;;;;;;;;5094607;28;20062;-82
2022/12/19 14:24:30;;;;;;;27.70;10.60;;;;;;;;;;5092486;28;20020;-82
2022/12/19 14:27:01;;;;;;;21.73;10.30;;;;;;;;;;5014528;28;20021;-80
2022/12/19 14:29:34;;;;;;;26.30;12.15;;;;;;;;;;5078766;28;20042;-82
2022/12/19 14:32:00;;;;;;;16.30;7.25;;;;;;;;;;5093980;28;20019;-82
2022/12/19 14:34:27;;;;;;;23.63;9.73;;;;;;;;;;5093732;28;20549;-81
2022/12/19 14:36:54;;;;;;;24.23;8.55;;;;;;;;;;5092516;28;20068;-80
2022/12/19 14:39:21;;;;;;;22.98;8.18;;;;;;;;;;5093438;28;20465;-82
2022/12/19 14:45:01;;;;;;;14.77;6.23;;;;;;;;;;5093949;28;20027;-81
2022/12/19 14:47:34;;;;;;;23.20;8.70;;;;;;;;;;5074146;28;20028;-79
2022/12/19 14:49:59;;;;;;;27.65;10.93;;;;;;;;;;5092350;28;20024;-81
2022/12/19 14:52:33;;;;;;;20.90;9.02;;;;;;;;;;5093582;28;20363;-80
2022/12/19 14:55:17;;;;;;;24.85;10.15;;;;;;;;;;5091654;28;20035;-79
2022/12/19 14:57:42;;;;;;;17.67;6.68;;;;;;;;;;5092455;28;20490;-80
2022/12/19 15:00:43;;;;;;;26.40;8.65;;;;;;;;;;5093234;28;20079;-82
2022/12/19 15:03:12;;;;;;;16.95;7.72;;;;;;;;;;5014179;28;20409;-80